TimePST,TemperatureF,Dew PointF,Humidity,Sea Level PressureIn,VisibilityMPH,Wind Direction,Wind SpeedMPH,Gust SpeedMPH,PrecipitationIn,Events,Conditions,WindDirDegrees,DateUTC
12:56 AM,14.0,-2.0,49,30.19,10.0,NW,4.6,-,N/A,,Clear,310,2012-12-21 08:56:00
1:56 AM,8.1,-2.9,61,30.20,10.0,NNW,4.6,-,N/A,,Clear,330,2012-12-21 09:56:00
2:56 AM,10.0,-2.0,58,30.18,10.0,North,5.8,-,N/A,,Clear,360,2012-12-21 10:56:00
3:56 AM,8.1,-2.0,64,30.18,10.0,NNW,5.8,-,N/A,,Clear,330,2012-12-21 11:56:00
4:56 AM,8.1,-2.0,64,30.18,10.0,NNW,4.6,-,N/A,,Clear,330,2012-12-21 12:56:00
5:56 AM,6.1,-2.0,69,30.20,10.0,NNE,5.8,-,N/A,,Clear,20,2012-12-21 13:56:00
6:56 AM,6.1,-2.9,67,30.22,10.0,North,6.9,-,N/A,,Clear,350,2012-12-21 14:56:00
7:56 AM,12.9,-0.0,56,30.23,10.0,North,3.5,-,N/A,,Clear,350,2012-12-21 15:56:00
8:56 AM,21.9,1.9,42,30.22,10.0,Calm,Calm,-,N/A,,Clear,0,2012-12-21 16:56:00
9:56 AM,30.9,3.0,31,30.19,10.0,Calm,Calm,-,N/A,,Clear,0,2012-12-21 17:56:00
10:56 AM,34.0,1.0,25,30.14,10.0,Calm,Calm,-,N/A,,Clear,0,2012-12-21 18:56:00
11:56 AM,37.0,3.0,24,30.12,10.0,Calm,Calm,-,N/A,,Clear,0,2012-12-21 19:56:00
12:56 PM,39.9,3.9,22,30.06,10.0,Calm,Calm,-,N/A,,Clear,0,2012-12-21 20:56:00
1:56 PM,42.1,5.0,22,30.07,10.0,South,3.5,-,N/A,,Clear,180,2012-12-21 21:56:00
2:56 PM,39.9,5.0,23,30.08,10.0,WSW,3.5,-,N/A,,Clear,250,2012-12-21 22:56:00
3:56 PM,37.9,3.0,23,30.10,10.0,WNW,3.5,-,N/A,,Clear,290,2012-12-21 23:56:00
4:56 PM,28.9,3.9,35,30.11,10.0,North,5.8,-,N/A,,Clear,360,2012-12-22 00:56:00
5:56 PM,27.0,3.0,36,30.11,10.0,NW,4.6,-,N/A,,Clear,320,2012-12-22 01:56:00
6:56 PM,21.9,3.0,44,30.13,10.0,North,4.6,-,N/A,,Clear,360,2012-12-22 02:56:00
7:56 PM,19.9,3.0,48,30.13,10.0,North,-9999.0,-,N/A,,Clear,0,2012-12-22 03:56:00
8:56 PM,19.0,1.9,47,30.11,10.0,Calm,Calm,-,N/A,,Clear,0,2012-12-22 04:56:00
9:56 PM,15.1,3.0,59,30.11,10.0,NNE,4.6,-,N/A,,Clear,30,2012-12-22 05:56:00
10:56 PM,12.9,1.9,62,30.09,10.0,North,4.6,-,N/A,,Clear,350,2012-12-22 06:56:00
11:56 PM,12.0,1.0,61,30.07,10.0,NNE,4.6,-,N/A,,Clear,30,2012-12-22 07:56:00